Terminal Aerodrome Forecast
Issued by NWS

Home | Current Version | Previous Version | Text Only | Print | Product List | Glossary On
Versions: 1 2 3 4 5 6 7 8 9 10 11 12 13
000
FTUS44 KLZK 262340
TAFLIT
TAF
KLIT 262340Z 2700/2724 17005KT P6SM VCTS SCT050CB
      TEMPO 2700/2701 VRB12G24KT
     FM271100 00000KT 5SM BR BKN250
     FM271500 10003KT P6SM SCT250
     FM271800 11006KT P6SM SCT050=

USA.gov is the U.S. government's official web portal to all federal, state and local government web resources and services.